Time;durP1;ratioP1;P1;durP2;ratioP2;P2;SDS_P1;SDS_P2;PMS_P1;PMS_P2;Temp;Humidity;BMP_temperature;BMP_pressure;BME280_temperature;BME280_humidity;BME280_pressure;Samples;Min_cycle;Max_cycle;Signal;HPM_P1;HPM_P2
2023/08/09 00:03:02;;;;;;;4.03;3.33;;;;;;;-140.66;100.00;55571.53;5134859;27;20023;-73
2023/08/09 00:06:46;;;;;;;5.00;3.50;;;;;;;-140.66;100.00;55571.53;5134972;27;20110;-73
2023/08/09 00:10:30;;;;;;;6.95;3.80;;;;;;;-140.66;100.00;55571.53;5137572;27;20075;-71
2023/08/09 00:14:14;;;;;;;4.95;3.33;;;;;;;-140.66;100.00;55571.53;5135447;27;20027;-73
2023/08/09 00:17:59;;;;;;;5.28;3.40;;;;;;;-140.66;100.00;55571.53;5135396;27;20118;-73
2023/08/09 00:21:43;;;;;;;9.38;3.60;;;;;;;-140.66;100.00;55571.53;5135807;27;20034;-75
2023/08/09 00:25:27;;;;;;;5.38;3.40;;;;;;;-140.66;100.00;55571.53;5134868;27;20037;-73
2023/08/09 00:29:12;;;;;;;5.13;3.90;;;;;;;-140.66;100.00;55571.53;5134977;27;20023;-74
2023/08/09 00:32:45;;;;;;;6.82;3.80;;;;;;;-140.66;100.00;55571.53;5135263;28;20039;-73
2023/08/09 00:35:34;;;;;;;7.32;4.05;;;;;;;-140.66;100.00;55571.53;5134931;28;20027;-73
2023/08/09 00:38:21;;;;;;;9.30;4.05;;;;;;;-140.66;100.00;55571.53;5140597;28;20050;-73
2023/08/09 00:41:22;;;;;;;5.00;3.90;;;;;;;-140.66;100.00;55571.53;5137907;28;20079;-72
2023/08/09 00:44:15;;;;;;;8.30;4.72;;;;;;;-140.66;100.00;55571.53;5138492;28;20096;-73
2023/08/09 00:47:19;;;;;;;12.55;4.68;;;;;;;-140.66;100.00;55571.53;5137934;28;20071;-73
2023/08/09 00:50:38;;;;;;;6.75;4.30;;;;;;;-140.66;100.00;55571.53;5136440;28;20043;-74
2023/08/09 00:53:49;;;;;;;8.13;4.65;;;;;;;-140.66;100.00;55571.53;5138797;28;20471;-73
2023/08/09 00:57:33;;;;;;;5.90;4.18;;;;;;;-140.66;100.00;55571.53;5137433;28;20475;-73
2023/08/09 01:01:09;;;;;;;5.10;4.20;;;;;;;-140.66;100.00;55571.53;5135314;28;20448;-73
2023/08/09 01:04:50;;;;;;;7.82;4.30;;;;;;;-140.66;100.00;55571.53;5135635;28;20125;-73
2023/08/09 01:08:04;;;;;;;11.40;4.88;;;;;;;-140.66;100.00;55571.53;5134836;28;20035;-73
2023/08/09 01:11:37;;;;;;;8.65;4.68;;;;;;;-140.66;100.00;55571.53;5133730;28;20080;-73
2023/08/09 01:14:43;;;;;;;6.25;4.28;;;;;;;-140.66;100.00;55571.53;5134030;28;20444;-73
2023/08/09 01:17:51;;;;;;;6.50;4.15;;;;;;;-140.66;100.00;55571.53;5133632;27;20468;-74
2023/08/09 01:21:26;;;;;;;8.80;4.47;;;;;;;-140.66;100.00;55571.53;5139527;27;20034;-73
2023/08/09 01:25:07;;;;;;;9.20;4.88;;;;;;;-140.66;100.00;55571.53;5137746;27;20391;-73
2023/08/09 01:28:52;;;;;;;5.80;4.35;;;;;;;-140.66;100.00;55571.53;5136867;27;20023;-74
2023/08/09 01:32:37;;;;;;;7.70;4.35;;;;;;;-140.66;100.00;55571.53;5138258;27;20031;-74
2023/08/09 01:36:28;;;;;;;6.25;4.25;;;;;;;-140.66;100.00;55571.53;5138096;27;20038;-74
2023/08/09 01:40:17;;;;;;;4.95;4.05;;;;;;;-140.66;100.00;55571.53;5137863;27;20353;-73
2023/08/09 01:44:03;;;;;;;7.95;4.30;;;;;;;-140.66;100.00;55571.53;5138190;27;20043;-73
2023/08/09 01:47:48;;;;;;;6.82;4.20;;;;;;;-140.66;100.00;55571.53;5137385;27;20061;-73
2023/08/09 01:51:32;;;;;;;5.13;4.18;;;;;;;-140.66;100.00;55571.53;5136614;27;20027;-73
2023/08/09 01:55:18;;;;;;;10.77;4.47;;;;;;;-140.66;100.00;55571.53;5138297;27;20031;-74
2023/08/09 01:59:05;;;;;;;8.65;5.20;;;;;;;-140.66;100.00;55571.53;5136948;27;20453;-74
2023/08/09 02:02:50;;;;;;;8.38;5.20;;;;;;;-140.66;100.00;55571.53;5137130;27;20401;-74
2023/08/09 02:06:34;;;;;;;8.07;5.50;;;;;;;-140.66;100.00;55571.53;5137814;27;20065;-74
2023/08/09 02:10:19;;;;;;;8.20;5.88;;;;;;;-140.66;100.00;55571.53;5137261;27;20092;-73
2023/08/09 02:14:03;;;;;;;7.18;5.47;;;;;;;-140.66;100.00;55571.53;5138510;27;20028;-73
2023/08/09 02:17:49;;;;;;;12.88;6.22;;;;;;;-140.66;100.00;55571.53;5136581;27;20411;-73
2023/08/09 02:21:33;;;;;;;7.65;6.07;;;;;;;-140.66;100.00;55571.53;5137438;27;20052;-73
2023/08/09 02:25:13;;;;;;;8.70;6.55;;;;;;;-140.66;100.00;55571.53;5136560;27;20019;-73
2023/08/09 02:28:56;;;;;;;8.88;7.20;;;;;;;-140.66;100.00;55571.53;5137036;27;20110;-73
2023/08/09 02:32:41;;;;;;;9.02;7.53;;;;;;;-140.66;100.00;55571.53;5136886;27;20027;-74
2023/08/09 02:36:30;;;;;;;10.25;7.20;;;;;;;-140.66;100.00;55571.53;5137199;27;20027;-74
2023/08/09 02:40:14;;;;;;;8.80;7.70;;;;;;;-140.66;100.00;55571.53;5137686;27;20118;-73
2023/08/09 02:43:58;;;;;;;12.45;8.32;;;;;;;-140.66;100.00;55571.53;5136638;27;20026;-74
2023/08/09 02:47:43;;;;;;;12.73;8.75;;;;;;;-140.66;100.00;55571.53;5134895;27;20055;-74
2023/08/09 02:51:27;;;;;;;9.82;7.45;;;;;;;-140.66;100.00;55571.53;5136102;27;20122;-74
2023/08/09 02:55:13;;;;;;;12.77;8.32;;;;;;;-140.66;100.00;55571.53;5136086;27;20410;-73
2023/08/09 02:58:59;;;;;;;15.63;9.85;;;;;;;-140.66;100.00;55571.53;5136028;27;20019;-73
2023/08/09 03:02:43;;;;;;;15.10;10.30;;;;;;;-140.66;100.00;55571.53;5135580;27;20030;-73
2023/08/09 03:06:27;;;;;;;13.50;9.88;;;;;;;-140.66;100.00;55571.53;5136189;27;20027;-73
2023/08/09 03:10:12;;;;;;;14.40;9.98;;;;;;;-140.66;100.00;55571.53;5135604;27;20037;-73
2023/08/09 03:13:56;;;;;;;12.55;9.65;;;;;;;-140.66;100.00;55571.53;5135560;27;20024;-73
2023/08/09 03:17:41;;;;;;;16.08;9.55;;;;;;;-140.66;100.00;55571.53;5136317;27;20042;-73
2023/08/09 03:21:26;;;;;;;15.18;9.77;;;;;;;-140.66;100.00;55571.53;5135537;27;20030;-74
2023/08/09 03:25:11;;;;;;;18.42;10.25;;;;;;;-140.66;100.00;55571.53;5136332;27;20377;-74
2023/08/09 03:28:55;;;;;;;16.52;9.82;;;;;;;-140.66;100.00;55571.53;5144329;27;20310;-73
2023/08/09 03:32:39;;;;;;;14.63;9.60;;;;;;;-140.66;100.00;55571.53;5151502;27;20059;-73
2023/08/09 03:36:25;;;;;;;18.45;9.35;;;;;;;-140.66;100.00;55571.53;5135496;27;20391;-72
2023/08/09 03:40:12;;;;;;;13.77;9.23;;;;;;;-140.66;100.00;55571.53;5135488;27;20371;-74
2023/08/09 03:43:56;;;;;;;13.95;8.88;;;;;;;-140.66;100.00;55571.53;5134978;27;20047;-74
2023/08/09 03:47:40;;;;;;;15.63;10.00;;;;;;;-140.66;100.00;55571.53;5134522;27;20043;-73
2023/08/09 03:51:25;;;;;;;14.80;9.05;;;;;;;-140.66;100.00;55571.53;5135718;27;20066;-73
2023/08/09 03:55:09;;;;;;;12.13;8.15;;;;;;;-140.66;100.00;55571.53;5135061;27;20126;-74
2023/08/09 03:58:53;;;;;;;12.90;9.30;;;;;;;-140.66;100.00;55571.53;5135093;27;20467;-74
2023/08/09 04:02:37;;;;;;;13.90;8.32;;;;;;;-140.66;100.00;55571.53;5134583;27;20085;-74
2023/08/09 04:06:22;;;;;;;13.10;8.32;;;;;;;-140.66;100.00;55571.53;5135212;27;20019;-73
2023/08/09 04:10:09;;;;;;;11.50;7.95;;;;;;;-140.66;100.00;55571.53;5151096;27;20023;-73
2023/08/09 04:13:53;;;;;;;10.95;7.93;;;;;;;-140.66;100.00;55571.53;5134023;27;20142;-73
2023/08/09 04:17:37;;;;;;;10.90;8.07;;;;;;;-140.66;100.00;55571.53;5134427;27;20023;-73
2023/08/09 04:21:21;;;;;;;10.88;7.93;;;;;;;-140.66;100.00;55571.53;5134813;27;20060;-74
2023/08/09 04:25:10;;;;;;;9.68;7.10;;;;;;;-140.66;100.00;55571.53;5134389;27;20034;-73
2023/08/09 04:28:54;;;;;;;7.60;6.15;;;;;;;-140.66;100.00;55571.53;5133229;27;20027;-73
2023/08/09 04:32:39;;;;;;;8.77;5.90;;;;;;;-140.66;100.00;55571.53;5134440;27;20540;-73
2023/08/09 04:36:23;;;;;;;6.93;5.40;;;;;;;-140.66;100.00;55571.53;5135568;28;20039;-74
2023/08/09 04:40:10;;;;;;;9.95;5.55;;;;;;;-140.66;100.00;55571.53;5134751;28;20068;-74
2023/08/09 04:43:55;;;;;;;9.57;5.22;;;;;;;-140.66;100.00;55571.53;5134660;28;20027;-74
2023/08/09 04:47:39;;;;;;;7.30;5.57;;;;;;;-140.66;100.00;55571.53;5133844;28;20245;-74
2023/08/09 04:51:23;;;;;;;9.23;6.47;;;;;;;-140.66;100.00;55571.53;5134831;28;20147;-74
2023/08/09 04:55:07;;;;;;;11.38;7.03;;;;;;;-140.66;100.00;55571.53;5137426;27;20035;-74
2023/08/09 04:58:52;;;;;;;7.28;5.28;;;;;;;-140.66;100.00;55571.53;5137045;27;20027;-74
2023/08/09 05:02:36;;;;;;;16.42;4.72;;;;;;;-140.66;100.00;55571.53;5138280;27;20117;-73
2023/08/09 05:06:22;;;;;;;8.20;4.10;;;;;;;-140.66;100.00;55571.53;5139314;27;20329;-74
2023/08/09 05:10:06;;;;;;;5.85;4.20;;;;;;;-140.66;100.00;55571.53;5138731;27;20055;-75
2023/08/09 05:13:51;;;;;;;4.32;3.72;;;;;;;-140.66;100.00;55571.53;5138134;27;20031;-73
2023/08/09 05:17:35;;;;;;;6.82;4.53;;;;;;;-140.66;100.00;55571.53;5137677;27;20042;-73
2023/08/09 05:21:19;;;;;;;5.75;4.50;;;;;;;-140.66;100.00;55571.53;5137676;27;20019;-73
2023/08/09 05:25:04;;;;;;;6.10;4.88;;;;;;;-140.66;100.00;55571.53;5138591;27;20065;-73
2023/08/09 05:28:48;;;;;;;5.90;4.93;;;;;;;-140.66;100.00;55571.53;5137365;27;20046;-74
2023/08/09 05:32:32;;;;;;;7.95;5.88;;;;;;;-140.66;100.00;55571.53;5137670;27;20106;-75
2023/08/09 05:36:16;;;;;;;10.95;6.30;;;;;;;-140.66;100.00;55571.53;5138462;27;20118;-74
2023/08/09 05:40:01;;;;;;;6.50;5.80;;;;;;;-140.66;100.00;55571.53;5137550;27;20023;-73
2023/08/09 05:43:45;;;;;;;7.00;5.70;;;;;;;-140.66;100.00;55571.53;5137713;27;20050;-74
2023/08/09 05:47:29;;;;;;;9.32;5.38;;;;;;;-140.66;100.00;55571.53;5138162;27;20414;-75
2023/08/09 05:51:14;;;;;;;8.30;5.40;;;;;;;-140.66;100.00;55571.53;5138191;27;20031;-74
2023/08/09 05:54:58;;;;;;;9.23;5.43;;;;;;;-140.66;100.00;55571.53;5137658;27;20023;-72
2023/08/09 05:58:43;;;;;;;8.30;5.50;;;;;;;-140.66;100.00;55571.53;5137380;27;20023;-74
2023/08/09 06:02:27;;;;;;;6.03;5.18;;;;;;;-140.66;100.00;55571.53;5137137;27;20058;-73
2023/08/09 06:06:11;;;;;;;10.40;5.78;;;;;;;-140.66;100.00;55571.53;5137138;27;20031;-73
2023/08/09 06:09:55;;;;;;;9.02;5.30;;;;;;;-140.66;100.00;55571.53;5136979;27;20122;-72
2023/08/09 06:13:39;;;;;;;9.40;5.00;;;;;;;-140.66;100.00;55571.53;5145870;27;20019;-72
2023/08/09 06:17:24;;;;;;;8.77;5.15;;;;;;;-140.66;100.00;55571.53;5144832;27;20042;-73
2023/08/09 06:21:09;;;;;;;11.80;5.50;;;;;;;-140.66;100.00;55571.53;5147219;27;20039;-73
2023/08/09 06:24:53;;;;;;;11.30;5.43;;;;;;;-140.66;100.00;55571.53;5147459;27;20045;-71
2023/08/09 06:28:38;;;;;;;8.00;5.93;;;;;;;-140.66;100.00;55571.53;5148840;27;20019;-73
2023/08/09 06:32:22;;;;;;;11.45;5.70;;;;;;;-140.66;100.00;55571.53;5149760;27;20348;-72
2023/08/09 06:36:06;;;;;;;7.35;5.45;;;;;;;-140.66;100.00;55571.53;5147408;27;20030;-73
2023/08/09 06:39:50;;;;;;;8.98;5.18;;;;;;;-140.66;100.00;55571.53;5145622;27;20034;-72
2023/08/09 06:43:35;;;;;;;10.05;5.32;;;;;;;-140.66;100.00;55571.53;5147687;27;20050;-72
2023/08/09 06:47:19;;;;;;;7.68;4.80;;;;;;;-140.66;100.00;55571.53;5140619;27;20119;-73
2023/08/09 06:51:03;;;;;;;6.47;4.90;;;;;;;-140.66;100.00;55571.53;5138731;27;20091;-74
2023/08/09 06:54:48;;;;;;;6.95;4.85;;;;;;;-140.66;100.00;55571.53;5140223;27;20019;-72
2023/08/09 06:58:35;;;;;;;12.23;5.63;;;;;;;-140.66;100.00;55571.53;5146277;27;20027;-75
2023/08/09 07:02:20;;;;;;;8.63;5.40;;;;;;;-140.66;100.00;55571.53;5142764;27;20073;-74
2023/08/09 07:06:06;;;;;;;11.48;4.82;;;;;;;-140.66;100.00;55571.53;5148631;27;20110;-73
2023/08/09 07:09:52;;;;;;;7.88;5.57;;;;;;;-140.66;100.00;55571.53;5146000;27;20027;-73
2023/08/09 07:13:36;;;;;;;7.53;4.97;;;;;;;-140.66;100.00;55571.53;5144102;27;20027;-75
2023/08/09 07:17:21;;;;;;;8.07;5.43;;;;;;;-140.66;100.00;55571.53;5138449;27;20038;-73
2023/08/09 07:21:05;;;;;;;8.82;5.00;;;;;;;-140.66;100.00;55571.53;5136401;27;20042;-73
2023/08/09 07:24:51;;;;;;;9.55;4.88;;;;;;;-140.66;100.00;55571.53;5150324;27;20011;-74
2023/08/09 07:28:42;;;;;;;10.02;5.68;;;;;;;-140.66;100.00;55571.53;5138634;27;20027;-74
2023/08/09 07:32:26;;;;;;;10.63;6.70;;;;;;;-140.66;100.00;55571.53;5142627;27;20037;-74
2023/08/09 07:36:11;;;;;;;11.82;6.60;;;;;;;-140.66;100.00;55571.53;5144411;27;20127;-74
2023/08/09 07:39:55;;;;;;;21.63;6.20;;;;;;;-140.66;100.00;55571.53;5146004;27;20023;-73
2023/08/09 07:43:40;;;;;;;9.95;4.45;;;;;;;-140.66;100.00;55571.53;5145816;27;20506;-74
2023/08/09 07:47:24;;;;;;;7.72;3.38;;;;;;;-140.66;100.00;55571.53;5145457;27;20034;-72
2023/08/09 07:51:12;;;;;;;17.58;3.13;;;;;;;-140.66;100.00;55571.53;5144603;27;20080;-72
2023/08/09 07:54:57;;;;;;;5.22;2.33;;;;;;;-140.66;100.00;55571.53;5143509;27;20038;-73
2023/08/09 07:58:41;;;;;;;10.02;2.00;;;;;;;-140.66;100.00;55571.53;5142638;27;20475;-72
2023/08/09 08:02:25;;;;;;;5.07;2.10;;;;;;;-140.66;100.00;55571.53;5137071;27;20338;-74
2023/08/09 08:06:12;;;;;;;3.90;1.90;;;;;;;-140.66;100.00;55571.53;5135899;27;20011;-74
2023/08/09 08:09:56;;;;;;;2.70;1.70;;;;;;;-140.66;100.00;55571.53;5135973;27;20068;-73
2023/08/09 08:13:41;;;;;;;2.00;1.45;;;;;;;-140.66;100.00;55571.53;5135586;27;20042;-74
2023/08/09 08:17:26;;;;;;;5.82;1.85;;;;;;;-140.66;100.00;55571.53;5142848;27;20035;-73
2023/08/09 08:21:10;;;;;;;4.40;1.48;;;;;;;-140.66;100.00;55571.53;5135969;27;20031;-73
2023/08/09 08:24:55;;;;;;;6.22;2.00;;;;;;;-140.66;100.00;55571.53;5137560;27;20023;-73
2023/08/09 08:28:39;;;;;;;1.67;1.55;;;;;;;-140.66;100.00;55571.53;5139334;27;20046;-72
2023/08/09 08:32:24;;;;;;;4.70;1.88;;;;;;;-140.66;100.00;55571.53;5140014;27;20114;-73
2023/08/09 08:36:08;;;;;;;3.38;1.55;;;;;;;-140.66;100.00;55571.53;5136370;28;20035;-74
2023/08/09 08:39:52;;;;;;;4.05;1.55;;;;;;;-140.66;100.00;55571.53;5134317;28;20042;-74
2023/08/09 08:43:37;;;;;;;3.85;1.63;;;;;;;-140.66;100.00;55571.53;5135566;28;20027;-73
2023/08/09 08:47:24;;;;;;;2.45;2.10;;;;;;;-140.66;100.00;55571.53;5135252;28;20045;-72
2023/08/09 08:51:09;;;;;;;2.00;1.80;;;;;;;-140.66;100.00;55571.53;5134443;28;20387;-74
2023/08/09 08:54:54;;;;;;;3.08;1.85;;;;;;;-140.66;100.00;55571.53;5137248;27;20027;-73
2023/08/09 08:58:40;;;;;;;8.63;2.95;;;;;;;-140.66;100.00;55571.53;5134375;28;20333;-74
2023/08/09 09:02:24;;;;;;;15.18;3.28;;;;;;;-140.66;100.00;55571.53;5134781;28;20106;-73
2023/08/09 09:06:10;;;;;;;3.58;2.05;;;;;;;-140.66;100.00;55571.53;5134196;28;20084;-74
2023/08/09 09:10:03;;;;;;;6.13;1.73;;;;;;;-140.66;100.00;55571.53;5134915;28;20027;-76
2023/08/09 09:13:51;;;;;;;2.35;2.00;;;;;;;-140.66;100.00;55571.53;5134069;28;20102;-76
2023/08/09 09:17:37;;;;;;;3.38;1.70;;;;;;;-140.66;100.00;55571.53;5135307;28;20046;-74
2023/08/09 09:21:28;;;;;;;2.22;1.77;;;;;;;-140.66;100.00;55571.53;5134070;28;20117;-75
2023/08/09 09:25:14;;;;;;;2.20;1.50;;;;;;;-140.66;100.00;55571.53;5134703;28;20051;-74
2023/08/09 09:28:58;;;;;;;1.65;1.50;;;;;;;-140.66;100.00;55571.53;5133427;28;20399;-74
2023/08/09 09:32:51;;;;;;;1.67;1.40;;;;;;;-140.66;100.00;55571.53;5134472;28;20031;-74
2023/08/09 09:36:39;;;;;;;2.10;1.30;;;;;;;-140.66;100.00;55571.53;5133561;28;20464;-74
2023/08/09 09:40:33;;;;;;;5.80;1.80;;;;;;;-140.66;100.00;55571.53;5136354;27;20038;-74
2023/08/09 09:44:23;;;;;;;7.03;1.95;;;;;;;-140.66;100.00;55571.53;5137275;27;20402;-73
2023/08/09 09:48:29;;;;;;;2.65;1.80;;;;;;;-140.66;100.00;55571.53;5137733;27;20392;-75
2023/08/09 09:52:17;;;;;;;2.05;1.40;;;;;;;-140.66;100.00;55571.53;5137767;27;20031;-73
2023/08/09 09:56:02;;;;;;;3.85;1.27;;;;;;;-140.66;100.00;55571.53;5136725;27;20468;-74
2023/08/09 09:59:46;;;;;;;5.93;1.73;;;;;;;-140.66;100.00;55571.53;5137622;27;20023;-73
2023/08/09 10:03:42;;;;;;;1.52;0.75;;;;;;;-140.66;100.00;55571.53;5136871;27;20027;-73
2023/08/09 10:07:30;;;;;;;3.10;1.00;;;;;;;-140.66;100.00;55571.53;5138102;27;20153;-73
2023/08/09 10:11:17;;;;;;;4.40;0.95;;;;;;;-140.66;100.00;55571.53;5138446;27;20139;-73
2023/08/09 10:15:03;;;;;;;2.90;0.82;;;;;;;-140.66;100.00;55571.53;5137383;27;20065;-74
2023/08/09 10:18:52;;;;;;;5.10;1.23;;;;;;;-140.66;100.00;55571.53;5136199;27;20027;-73
2023/08/09 10:22:38;;;;;;;3.28;1.23;;;;;;;-140.66;100.00;55571.53;5137931;27;20038;-74
2023/08/09 10:26:40;;;;;;;1.48;1.10;;;;;;;-140.66;100.00;55571.53;5136513;27;20436;-74
2023/08/09 10:30:26;;;;;;;2.45;0.90;;;;;;;-140.66;100.00;55571.53;5136363;27;20070;-74
2023/08/09 10:34:11;;;;;;;2.03;1.00;;;;;;;-140.66;100.00;55571.53;5143589;27;20094;-73
2023/08/09 10:37:56;;;;;;;4.65;0.85;;;;;;;-140.66;100.00;55571.53;5143683;27;20031;-74
2023/08/09 10:41:54;;;;;;;1.52;1.00;;;;;;;-140.66;100.00;55571.53;5137301;27;20020;-73
2023/08/09 10:45:42;;;;;;;3.10;0.80;;;;;;;-140.66;100.00;55571.53;5135833;27;20050;-73
2023/08/09 10:49:34;;;;;;;2.47;0.80;;;;;;;-140.66;100.00;55571.53;5136143;27;20115;-73
2023/08/09 10:53:27;;;;;;;2.70;1.00;;;;;;;-140.66;100.00;55571.53;5138164;27;20031;-73
2023/08/09 10:57:40;;;;;;;2.55;1.00;;;;;;;-140.66;100.00;55571.53;5137522;27;20087;-73
2023/08/09 11:01:25;;;;;;;1.25;1.05;;;;;;;-140.66;100.00;55571.53;5149691;27;20051;-72
2023/08/09 11:05:11;;;;;;;1.67;1.00;;;;;;;-140.66;100.00;55571.53;5138866;27;20463;-73
2023/08/09 11:09:04;;;;;;;2.10;1.00;;;;;;;-140.66;100.00;55571.53;5150697;27;20061;-73
2023/08/09 11:12:49;;;;;;;1.02;0.93;;;;;;;-140.66;100.00;55571.53;5143499;27;20023;-72
2023/08/09 11:16:35;;;;;;;1.75;1.00;;;;;;;-140.66;100.00;55571.53;5151859;27;20023;-76
2023/08/09 11:20:20;;;;;;;1.30;1.00;;;;;;;-140.66;100.00;55571.53;5151884;27;20030;-73
2023/08/09 11:24:07;;;;;;;3.85;1.08;;;;;;;-140.66;100.00;55571.53;5151943;27;20114;-73
2023/08/09 11:27:54;;;;;;;1.55;1.02;;;;;;;-140.66;100.00;55571.53;5149563;27;20027;-75
2023/08/09 11:31:45;;;;;;;5.15;1.10;;;;;;;-140.66;100.00;55571.53;5149738;27;20035;-71
2023/08/09 11:35:30;;;;;;;2.10;0.90;;;;;;;-140.66;100.00;55571.53;5150617;27;20399;-73
2023/08/09 11:39:15;;;;;;;2.72;1.00;;;;;;;-140.66;100.00;55571.53;5153800;27;20023;-73
2023/08/09 11:42:59;;;;;;;13.48;1.45;;;;;;;-140.66;100.00;55571.53;5158743;27;20122;-73
2023/08/09 11:46:46;;;;;;;1.15;0.90;;;;;;;-140.66;100.00;55571.53;5147438;27;20449;-74
2023/08/09 11:50:31;;;;;;;4.75;1.10;;;;;;;-140.66;100.00;55571.53;5135686;27;20046;-74
2023/08/09 11:54:15;;;;;;;2.83;1.20;;;;;;;-140.66;100.00;55571.53;5136162;27;20018;-73
2023/08/09 11:58:03;;;;;;;1.98;1.15;;;;;;;-140.66;100.00;55571.53;5135801;27;20031;-73
2023/08/09 12:01:51;;;;;;;3.40;1.08;;;;;;;-140.66;100.00;55571.53;5138537;27;20031;-73
2023/08/09 12:05:36;;;;;;;8.05;1.20;;;;;;;-140.66;100.00;55571.53;5135885;27;20027;-73
2023/08/09 12:09:36;;;;;;;2.70;0.90;;;;;;;-140.66;100.00;55571.53;5134558;27;20027;-74
2023/08/09 12:13:33;;;;;;;1.15;1.02;;;;;;;-140.66;100.00;55571.53;5135040;27;20030;-73
2023/08/09 12:17:25;;;;;;;2.80;1.10;;;;;;;-140.66;100.00;55571.53;5135720;27;20031;-74
2023/08/09 12:21:09;;;;;;;4.22;1.23;;;;;;;-140.66;100.00;55571.53;5139874;27;20023;-74
2023/08/09 12:24:55;;;;;;;5.15;1.17;;;;;;;-140.66;100.00;55571.53;5134457;27;20117;-73
2023/08/09 12:28:39;;;;;;;5.72;1.30;;;;;;;-140.66;100.00;55571.53;5134258;27;20401;-74
2023/08/09 12:32:24;;;;;;;2.38;1.00;;;;;;;-140.66;100.00;55571.53;5134359;27;20031;-74
2023/08/09 12:36:10;;;;;;;6.60;1.30;;;;;;;-140.66;100.00;55571.53;5135486;28;20055;-74
2023/08/09 12:39:54;;;;;;;2.88;1.02;;;;;;;-140.66;100.00;55571.53;5133997;28;20150;-73
2023/08/09 12:43:39;;;;;;;1.58;1.02;;;;;;;-140.66;100.00;55571.53;5134622;28;20352;-73
2023/08/09 12:47:23;;;;;;;6.00;1.73;;;;;;;-140.66;100.00;55571.53;5133670;28;20015;-74
2023/08/09 12:51:08;;;;;;;2.08;1.05;;;;;;;-140.66;100.00;55571.53;5133955;28;20027;-73
2023/08/09 12:54:52;;;;;;;1.77;1.08;;;;;;;-140.66;100.00;55571.53;5134021;28;20023;-73
2023/08/09 12:58:36;;;;;;;1.73;1.10;;;;;;;-140.66;100.00;55571.53;5134262;28;20027;-73
2023/08/09 13:02:20;;;;;;;0.93;0.82;;;;;;;-140.66;100.00;55571.53;5133894;28;20023;-74
2023/08/09 13:06:05;;;;;;;0.85;0.80;;;;;;;-140.66;100.00;55571.53;5133574;28;20016;-73
2023/08/09 13:09:49;;;;;;;2.50;0.88;;;;;;;-140.66;100.00;55571.53;5134031;28;20027;-73
2023/08/09 13:13:33;;;;;;;1.50;0.85;;;;;;;-140.66;100.00;55571.53;5134257;28;20066;-73
2023/08/09 13:17:18;;;;;;;3.65;1.17;;;;;;;-140.66;100.00;55571.53;5137303;27;20023;-74
2023/08/09 13:21:03;;;;;;;3.90;1.45;;;;;;;-140.66;100.00;55571.53;5137476;27;20023;-73
2023/08/09 13:24:48;;;;;;;1.98;0.95;;;;;;;-140.66;100.00;55571.53;5138620;27;20027;-74
2023/08/09 13:28:32;;;;;;;3.65;1.15;;;;;;;-140.66;100.00;55571.53;5137950;27;20062;-73
2023/08/09 13:32:16;;;;;;;1.20;1.00;;;;;;;-140.66;100.00;55571.53;5137852;27;20030;-73
2023/08/09 13:36:01;;;;;;;3.67;0.90;;;;;;;-140.66;100.00;55571.53;5138530;27;20020;-73
2023/08/09 13:39:45;;;;;;;2.08;1.10;;;;;;;-140.66;100.00;55571.53;5138495;27;20359;-72
2023/08/09 13:43:29;;;;;;;5.53;1.00;;;;;;;-140.66;100.00;55571.53;5137692;27;20027;-72
2023/08/09 13:47:14;;;;;;;4.35;1.10;;;;;;;-140.66;100.00;55571.53;5137610;27;20020;-73
2023/08/09 13:50:58;;;;;;;1.10;0.93;;;;;;;-140.66;100.00;55571.53;5138549;27;20125;-74
2023/08/09 13:54:42;;;;;;;1.75;0.90;;;;;;;-140.66;100.00;55571.53;5137471;27;20088;-74
2023/08/09 13:58:26;;;;;;;7.40;1.20;;;;;;;-140.66;100.00;55571.53;5137368;27;20103;-74
2023/08/09 14:02:11;;;;;;;1.10;0.70;;;;;;;-140.66;100.00;55571.53;5138637;27;20031;-73
2023/08/09 14:05:55;;;;;;;2.80;0.90;;;;;;;-140.66;100.00;55571.53;5138183;27;20027;-73
2023/08/09 14:09:39;;;;;;;1.90;1.00;;;;;;;-140.66;100.00;55571.53;5137085;27;20027;-73
2023/08/09 14:13:23;;;;;;;5.32;1.27;;;;;;;-140.66;100.00;55571.53;5139834;27;20023;-73
2023/08/09 14:17:08;;;;;;;2.28;1.05;;;;;;;-140.66;100.00;55571.53;5140167;27;20440;-73
2023/08/09 14:20:52;;;;;;;6.30;1.42;;;;;;;-140.66;100.00;55571.53;5138475;27;20446;-74
2023/08/09 14:24:36;;;;;;;5.10;1.17;;;;;;;-140.66;100.00;55571.53;5137395;27;20027;-73
2023/08/09 14:28:21;;;;;;;7.15;1.50;;;;;;;-140.66;100.00;55571.53;5137301;27;20031;-74
2023/08/09 14:32:06;;;;;;;6.50;1.10;;;;;;;-140.66;100.00;55571.53;5137178;27;20023;-73
2023/08/09 14:35:50;;;;;;;12.60;2.03;;;;;;;-140.66;100.00;55571.53;5136564;27;20023;-73
2023/08/09 14:39:38;;;;;;;1.75;0.90;;;;;;;-140.66;100.00;55571.53;5136344;27;20027;-73
2023/08/09 14:43:22;;;;;;;7.40;1.48;;;;;;;-140.66;100.00;55571.53;5136919;27;20027;-73
2023/08/09 14:47:08;;;;;;;1.30;0.95;;;;;;;-140.66;100.00;55571.53;5136518;27;20481;-74
2023/08/09 14:50:52;;;;;;;10.90;1.60;;;;;;;-140.66;100.00;55571.53;5137316;27;20065;-73
2023/08/09 14:54:36;;;;;;;5.30;1.13;;;;;;;-140.66;100.00;55571.53;5136348;27;20069;-75
2023/08/09 14:58:20;;;;;;;3.10;0.93;;;;;;;-140.66;100.00;55571.53;5137260;27;20038;-72
2023/08/09 15:02:06;;;;;;;1.77;1.00;;;;;;;-140.66;100.00;55571.53;5142225;27;20023;-73
2023/08/09 15:05:50;;;;;;;2.05;1.10;;;;;;;-140.66;100.00;55571.53;5141519;27;20105;-73
2023/08/09 15:09:35;;;;;;;5.30;1.10;;;;;;;-140.66;100.00;55571.53;5140086;27;20029;-72
2023/08/09 15:13:20;;;;;;;1.90;1.10;;;;;;;-140.66;100.00;55571.53;5140199;27;20037;-72
2023/08/09 15:17:06;;;;;;;2.33;1.30;;;;;;;-140.66;100.00;55571.53;5142173;27;20066;-72
2023/08/09 15:20:52;;;;;;;1.40;1.13;;;;;;;-140.66;100.00;55571.53;5139569;27;20038;-73
2023/08/09 15:24:36;;;;;;;4.72;1.20;;;;;;;-140.66;100.00;55571.53;5136835;27;20114;-74
2023/08/09 15:28:20;;;;;;;23.48;1.70;;;;;;;-140.66;100.00;55571.53;5135593;27;20029;-74
2023/08/09 15:32:05;;;;;;;3.63;1.10;;;;;;;-140.66;100.00;55571.53;5135385;27;20053;-73
2023/08/09 15:35:49;;;;;;;1.35;1.10;;;;;;;-140.66;100.00;55571.53;5135420;27;20115;-73
2023/08/09 15:39:34;;;;;;;2.45;0.90;;;;;;;-140.66;100.00;55571.53;5134163;27;20387;-73
2023/08/09 15:43:18;;;;;;;1.98;1.30;;;;;;;-140.66;100.00;55571.53;5136213;27;20034;-74
2023/08/09 15:47:02;;;;;;;2.03;1.15;;;;;;;-140.66;100.00;55571.53;5134868;27;20023;-73
2023/08/09 15:50:46;;;;;;;2.45;1.00;;;;;;;-140.66;100.00;55571.53;5136761;27;20065;-73
2023/08/09 15:54:32;;;;;;;2.10;1.10;;;;;;;-140.66;100.00;55571.53;5134760;27;20023;-73
2023/08/09 15:58:16;;;;;;;1.00;0.90;;;;;;;-140.66;100.00;55571.53;5135536;27;20344;-74
2023/08/09 16:02:00;;;;;;;3.58;1.40;;;;;;;-140.66;100.00;55571.53;5134789;27;20314;-74
2023/08/09 16:05:45;;;;;;;2.10;0.98;;;;;;;-140.66;100.00;55571.53;5134401;27;20109;-73
2023/08/09 16:09:29;;;;;;;3.10;1.10;;;;;;;-140.66;100.00;55571.53;5134135;27;20019;-73
2023/08/09 16:13:14;;;;;;;15.85;1.70;;;;;;;-140.66;100.00;55571.53;5134673;27;20352;-74
2023/08/09 16:16:58;;;;;;;34.08;21.27;;;;;;;-140.66;100.00;55571.53;5134262;27;20027;-74
2023/08/09 16:20:43;;;;;;;1.67;1.27;;;;;;;-140.66;100.00;55571.53;5134729;27;20019;-74
2023/08/09 16:24:28;;;;;;;1.85;1.08;;;;;;;-140.66;100.00;55571.53;5135678;27;20019;-73
2023/08/09 16:28:13;;;;;;;3.63;1.30;;;;;;;-140.66;100.00;55571.53;5134771;27;20105;-74
2023/08/09 16:31:57;;;;;;;3.65;1.20;;;;;;;-140.66;100.00;55571.53;5134288;27;20031;-74
2023/08/09 16:35:41;;;;;;;2.38;1.10;;;;;;;-140.66;100.00;55571.53;5134770;27;20038;-73
2023/08/09 16:39:25;;;;;;;1.77;1.13;;;;;;;-140.66;100.00;55571.53;5134901;28;20368;-74
2023/08/09 16:43:10;;;;;;;2.65;1.00;;;;;;;-140.66;100.00;55571.53;5134554;28;20050;-74
2023/08/09 16:46:58;;;;;;;7.32;1.63;;;;;;;-140.66;100.00;55571.53;5135011;28;20030;-73
2023/08/09 16:50:42;;;;;;;3.20;1.17;;;;;;;-140.66;100.00;55571.53;5136449;27;20096;-73
2023/08/09 16:54:26;;;;;;;1.45;1.10;;;;;;;-140.66;100.00;55571.53;5139569;27;20035;-74